Scottville, North Carolina
Current Conditions -  °F | °C
As of 9:15 PM on Monday 22 Dec 2014 (Local Time) from KGEV Reporting Station
Drizzle Drizzle  
Wind Chill: 34°   Ceiling: 300
Heat Index: 34°   Visibility: 0.25mi
Dew Point: 34°   Wind: 0mph
Humidity: 100%   Direction: NA
Pressure: 29.98"   Gusts: NA
Location:  36.48°N, 81.31°W
Report Text: KGEV 230215Z AUTO 00000KT 1/4SM -DZ OVC003 01/01 A2998 RMK AO2 T00120012
Loading
Personal Weather Stations






























Interactive Weather Map New forecast layout! Learn more

10-Day Weather Forecast

Advertisements
Track Severe Weather on mobile